sensor_id;sensor_type;location;lat;lon;timestamp;pressure;altitude;pressure_sealevel;temperature;humidity
78590;BME280;67888;50.228;7.828;2024-02-14T00:03:49;99394.47;;;8.14;100.00
78590;BME280;67888;50.228;7.828;2024-02-14T00:08:50;99394.25;;;8.15;100.00
78590;BME280;67888;50.228;7.828;2024-02-14T00:13:50;99382.47;;;8.18;100.00
78590;BME280;67888;50.228;7.828;2024-02-14T00:18:50;99375.91;;;8.15;100.00
78590;BME280;67888;50.228;7.828;2024-02-14T00:23:51;99383.59;;;8.22;100.00
78590;BME280;67888;50.228;7.828;2024-02-14T00:28:51;99378.59;;;8.20;100.00
78590;BME280;67888;50.228;7.828;2024-02-14T00:33:52;99390.34;;;8.18;100.00
78590;BME280;67888;50.228;7.828;2024-02-14T00:38:52;99372.09;;;8.28;100.00
78590;BME280;67888;50.228;7.828;2024-02-14T00:43:52;99371.13;;;8.12;100.00
78590;BME280;67888;50.228;7.828;2024-02-14T00:48:53;99373.28;;;8.15;100.00
78590;BME280;67888;50.228;7.828;2024-02-14T00:53:54;99377.25;;;8.18;100.00
78590;BME280;67888;50.228;7.828;2024-02-14T00:58:55;99377.34;;;8.28;100.00
78590;BME280;67888;50.228;7.828;2024-02-14T01:03:56;99385.69;;;8.25;100.00
78590;BME280;67888;50.228;7.828;2024-02-14T01:08:57;99373.59;;;8.19;100.00
78590;BME280;67888;50.228;7.828;2024-02-14T01:13:57;99374.84;;;8.16;100.00
78590;BME280;67888;50.228;7.828;2024-02-14T01:18:58;99370.63;;;8.10;100.00
78590;BME280;67888;50.228;7.828;2024-02-14T01:23:58;99373.47;;;8.09;100.00
78590;BME280;67888;50.228;7.828;2024-02-14T01:28:58;99383.81;;;8.20;100.00
78590;BME280;67888;50.228;7.828;2024-02-14T01:34:01;99376.44;;;8.17;100.00
78590;BME280;67888;50.228;7.828;2024-02-14T01:39:02;99376.44;;;8.17;100.00
78590;BME280;67888;50.228;7.828;2024-02-14T01:44:03;99354.47;;;8.23;100.00
78590;BME280;67888;50.228;7.828;2024-02-14T01:49:04;99345.00;;;8.17;100.00
78590;BME280;67888;50.228;7.828;2024-02-14T01:54:05;99342.38;;;8.17;100.00
78590;BME280;67888;50.228;7.828;2024-02-14T01:59:06;99340.84;;;8.21;100.00
78590;BME280;67888;50.228;7.828;2024-02-14T02:04:08;99328.16;;;8.13;100.00
78590;BME280;67888;50.228;7.828;2024-02-14T02:09:08;99327.91;;;8.10;100.00
78590;BME280;67888;50.228;7.828;2024-02-14T02:14:09;99324.47;;;8.09;100.00
78590;BME280;67888;50.228;7.828;2024-02-14T02:19:09;99331.31;;;8.10;100.00
78590;BME280;67888;50.228;7.828;2024-02-14T02:24:10;99334.91;;;8.04;100.00
78590;BME280;67888;50.228;7.828;2024-02-14T02:29:10;99332.13;;;8.16;100.00
78590;BME280;67888;50.228;7.828;2024-02-14T02:34:11;99325.50;;;8.08;100.00
78590;BME280;67888;50.228;7.828;2024-02-14T02:39:12;99319.47;;;8.08;100.00
78590;BME280;67888;50.228;7.828;2024-02-14T02:44:14;99328.13;;;8.08;100.00
78590;BME280;67888;50.228;7.828;2024-02-14T02:49:14;99321.00;;;8.04;100.00
78590;BME280;67888;50.228;7.828;2024-02-14T02:54:15;99318.06;;;8.00;100.00
78590;BME280;67888;50.228;7.828;2024-02-14T02:59:15;99333.38;;;8.08;100.00
78590;BME280;67888;50.228;7.828;2024-02-14T03:04:17;99340.06;;;7.99;100.00
78590;BME280;67888;50.228;7.828;2024-02-14T03:09:17;99334.31;;;7.97;100.00
78590;BME280;67888;50.228;7.828;2024-02-14T03:14:18;99350.03;;;7.97;100.00
78590;BME280;67888;50.228;7.828;2024-02-14T03:19:18;99348.06;;;8.09;100.00
78590;BME280;67888;50.228;7.828;2024-02-14T03:24:19;99344.19;;;8.17;100.00
78590;BME280;67888;50.228;7.828;2024-02-14T03:29:20;99348.75;;;8.26;100.00
78590;BME280;67888;50.228;7.828;2024-02-14T03:34:22;99348.16;;;8.19;100.00
78590;BME280;67888;50.228;7.828;2024-02-14T03:39:22;99355.53;;;8.22;100.00
78590;BME280;67888;50.228;7.828;2024-02-14T03:44:23;99358.66;;;8.19;100.00
78590;BME280;67888;50.228;7.828;2024-02-14T03:49:24;99352.00;;;8.12;100.00
78590;BME280;67888;50.228;7.828;2024-02-14T03:54:26;99351.34;;;8.21;100.00
78590;BME280;67888;50.228;7.828;2024-02-14T03:59:26;99342.81;;;8.09;100.00
78590;BME280;67888;50.228;7.828;2024-02-14T04:04:27;99354.09;;;8.10;100.00
78590;BME280;67888;50.228;7.828;2024-02-14T04:09:27;99364.47;;;8.26;100.00
78590;BME280;67888;50.228;7.828;2024-02-14T04:14:27;99382.59;;;8.28;100.00
78590;BME280;67888;50.228;7.828;2024-02-14T04:19:28;99393.50;;;8.20;100.00
78590;BME280;67888;50.228;7.828;2024-02-14T04:24:29;99388.88;;;8.05;100.00
78590;BME280;67888;50.228;7.828;2024-02-14T04:29:29;99385.16;;;8.23;100.00
78590;BME280;67888;50.228;7.828;2024-02-14T04:34:33;99370.13;;;7.91;100.00
78590;BME280;67888;50.228;7.828;2024-02-14T04:39:33;99361.59;;;8.01;100.00
78590;BME280;67888;50.228;7.828;2024-02-14T04:44:34;99363.13;;;7.97;100.00
78590;BME280;67888;50.228;7.828;2024-02-14T04:49:37;99351.91;;;8.02;100.00
78590;BME280;67888;50.228;7.828;2024-02-14T04:54:38;99341.72;;;8.05;100.00
78590;BME280;67888;50.228;7.828;2024-02-14T04:59:38;99345.06;;;8.01;100.00
78590;BME280;67888;50.228;7.828;2024-02-14T05:04:38;99357.94;;;8.02;100.00
78590;BME280;67888;50.228;7.828;2024-02-14T05:09:39;99368.31;;;7.92;100.00
78590;BME280;67888;50.228;7.828;2024-02-14T05:14:39;99372.53;;;8.20;100.00
78590;BME280;67888;50.228;7.828;2024-02-14T05:19:43;99376.69;;;8.16;100.00
78590;BME280;67888;50.228;7.828;2024-02-14T05:24:44;99370.72;;;8.20;100.00
78590;BME280;67888;50.228;7.828;2024-02-14T05:29:45;99375.06;;;8.10;100.00
78590;BME280;67888;50.228;7.828;2024-02-14T05:34:46;99382.16;;;8.14;100.00
78590;BME280;67888;50.228;7.828;2024-02-14T05:39:46;99388.50;;;8.18;100.00
78590;BME280;67888;50.228;7.828;2024-02-14T05:44:47;99385.34;;;8.16;100.00
78590;BME280;67888;50.228;7.828;2024-02-14T05:49:48;99377.84;;;8.03;100.00
78590;BME280;67888;50.228;7.828;2024-02-14T05:54:48;99388.97;;;8.10;100.00
78590;BME280;67888;50.228;7.828;2024-02-14T05:59:49;99379.50;;;8.09;100.00
78590;BME280;67888;50.228;7.828;2024-02-14T06:04:49;99374.56;;;8.13;100.00
78590;BME280;67888;50.228;7.828;2024-02-14T06:09:50;99387.00;;;8.22;100.00
78590;BME280;67888;50.228;7.828;2024-02-14T06:14:51;99386.63;;;8.14;100.00
78590;BME280;67888;50.228;7.828;2024-02-14T06:19:51;99395.03;;;8.38;100.00
78590;BME280;67888;50.228;7.828;2024-02-14T06:24:52;99414.75;;;8.23;100.00
78590;BME280;67888;50.228;7.828;2024-02-14T06:29:53;99408.78;;;8.28;100.00
78590;BME280;67888;50.228;7.828;2024-02-14T06:34:53;99408.13;;;8.38;100.00
78590;BME280;67888;50.228;7.828;2024-02-14T06:39:54;99421.97;;;8.55;100.00
78590;BME280;67888;50.228;7.828;2024-02-14T06:44:54;99426.34;;;8.49;100.00
78590;BME280;67888;50.228;7.828;2024-02-14T06:49:56;99437.22;;;8.58;100.00
78590;BME280;67888;50.228;7.828;2024-02-14T06:54:56;99427.19;;;8.55;100.00
78590;BME280;67888;50.228;7.828;2024-02-14T06:59:56;99424.09;;;8.58;100.00
78590;BME280;67888;50.228;7.828;2024-02-14T07:04:57;99423.69;;;8.71;100.00
78590;BME280;67888;50.228;7.828;2024-02-14T07:09:57;99439.53;;;8.54;100.00
78590;BME280;67888;50.228;7.828;2024-02-14T07:14:58;99434.84;;;8.61;100.00
78590;BME280;67888;50.228;7.828;2024-02-14T07:19:58;99439.13;;;8.68;100.00
78590;BME280;67888;50.228;7.828;2024-02-14T07:24:59;99450.09;;;8.65;100.00
78590;BME280;67888;50.228;7.828;2024-02-14T07:29:59;99465.03;;;8.86;100.00
78590;BME280;67888;50.228;7.828;2024-02-14T07:35:02;99468.22;;;8.93;100.00
78590;BME280;67888;50.228;7.828;2024-02-14T07:40:03;99456.53;;;9.06;100.00
78590;BME280;67888;50.228;7.828;2024-02-14T07:45:04;99462.97;;;8.93;100.00
78590;BME280;67888;50.228;7.828;2024-02-14T07:50:05;99468.16;;;9.15;100.00
78590;BME280;67888;50.228;7.828;2024-02-14T07:55:06;99458.41;;;9.10;100.00
78590;BME280;67888;50.228;7.828;2024-02-14T08:00:08;99466.69;;;9.29;100.00
78590;BME280;67888;50.228;7.828;2024-02-14T08:05:09;99471.53;;;9.42;100.00
78590;BME280;67888;50.228;7.828;2024-02-14T08:10:09;99471.44;;;9.32;100.00
78590;BME280;67888;50.228;7.828;2024-02-14T08:15:10;99462.97;;;9.20;100.00
78590;BME280;67888;50.228;7.828;2024-02-14T08:20:11;99475.78;;;9.48;100.00
78590;BME280;67888;50.228;7.828;2024-02-14T08:25:11;99482.25;;;9.73;100.00
78590;BME280;67888;50.228;7.828;2024-02-14T08:30:12;99491.91;;;9.62;100.00
78590;BME280;67888;50.228;7.828;2024-02-14T08:35:13;99498.28;;;9.39;100.00
78590;BME280;67888;50.228;7.828;2024-02-14T08:40:14;99506.69;;;9.41;100.00
78590;BME280;67888;50.228;7.828;2024-02-14T08:45:14;99508.97;;;9.59;100.00
78590;BME280;67888;50.228;7.828;2024-02-14T08:50:15;99503.44;;;9.61;100.00
78590;BME280;67888;50.228;7.828;2024-02-14T08:55:15;99492.69;;;9.62;100.00
78590;BME280;67888;50.228;7.828;2024-02-14T09:00:18;99498.56;;;9.80;100.00
78590;BME280;67888;50.228;7.828;2024-02-14T09:05:19;99500.38;;;9.74;100.00
78590;BME280;67888;50.228;7.828;2024-02-14T09:10:20;99500.78;;;9.98;100.00
78590;BME280;67888;50.228;7.828;2024-02-14T09:15:21;99498.16;;;9.98;100.00
78590;BME280;67888;50.228;7.828;2024-02-14T09:20:23;99498.47;;;10.06;100.00
78590;BME280;67888;50.228;7.828;2024-02-14T09:25:24;99493.50;;;10.15;100.00
78590;BME280;67888;50.228;7.828;2024-02-14T09:30:25;99498.09;;;10.40;100.00
78590;BME280;67888;50.228;7.828;2024-02-14T09:35:25;99497.84;;;10.36;100.00
78590;BME280;67888;50.228;7.828;2024-02-14T09:40:26;99502.84;;;10.43;100.00
78590;BME280;67888;50.228;7.828;2024-02-14T09:45:27;99507.34;;;10.53;100.00
78590;BME280;67888;50.228;7.828;2024-02-14T09:50:29;99495.06;;;10.73;100.00
78590;BME280;67888;50.228;7.828;2024-02-14T09:55:31;99488.50;;;10.81;100.00
78590;BME280;67888;50.228;7.828;2024-02-14T10:00:34;99492.50;;;11.39;100.00
78590;BME280;67888;50.228;7.828;2024-02-14T10:05:35;99489.88;;;11.14;100.00
78590;BME280;67888;50.228;7.828;2024-02-14T10:10:35;99514.38;;;11.35;100.00
78590;BME280;67888;50.228;7.828;2024-02-14T10:15:35;99510.41;;;11.37;100.00
78590;BME280;67888;50.228;7.828;2024-02-14T10:20:36;99519.09;;;11.23;100.00
78590;BME280;67888;50.228;7.828;2024-02-14T10:25:41;99545.44;;;11.18;100.00
78590;BME280;67888;50.228;7.828;2024-02-14T10:30:45;99535.72;;;11.38;100.00
78590;BME280;67888;50.228;7.828;2024-02-14T10:35:47;99531.47;;;11.12;100.00
78590;BME280;67888;50.228;7.828;2024-02-14T10:40:50;99530.16;;;11.45;100.00
78590;BME280;67888;50.228;7.828;2024-02-14T10:45:59;99541.25;;;11.27;100.00
78590;BME280;67888;50.228;7.828;2024-02-14T10:51:02;99527.78;;;11.54;100.00
78590;BME280;67888;50.228;7.828;2024-02-14T10:56:08;99523.84;;;11.41;100.00
78590;BME280;67888;50.228;7.828;2024-02-14T11:01:08;99548.03;;;11.02;100.00
78590;BME280;67888;50.228;7.828;2024-02-14T11:06:15;99537.78;;;11.11;100.00
78590;BME280;67888;50.228;7.828;2024-02-14T11:11:17;99533.06;;;11.13;100.00
78590;BME280;67888;50.228;7.828;2024-02-14T11:16:17;99530.72;;;11.37;100.00
78590;BME280;67888;50.228;7.828;2024-02-14T11:21:17;99529.38;;;11.55;100.00
78590;BME280;67888;50.228;7.828;2024-02-14T11:26:18;99527.53;;;11.60;100.00
78590;BME280;67888;50.228;7.828;2024-02-14T11:31:18;99530.69;;;11.67;100.00
78590;BME280;67888;50.228;7.828;2024-02-14T11:36:19;99532.03;;;11.34;100.00
78590;BME280;67888;50.228;7.828;2024-02-14T11:41:20;99527.81;;;11.79;100.00
78590;BME280;67888;50.228;7.828;2024-02-14T11:46:21;99527.00;;;11.78;100.00
78590;BME280;67888;50.228;7.828;2024-02-14T11:51:21;99526.22;;;11.78;100.00
78590;BME280;67888;50.228;7.828;2024-02-14T11:56:22;99523.31;;;11.74;100.00
78590;BME280;67888;50.228;7.828;2024-02-14T12:01:23;99511.72;;;11.70;100.00
78590;BME280;67888;50.228;7.828;2024-02-14T12:06:24;99519.59;;;11.65;100.00
78590;BME280;67888;50.228;7.828;2024-02-14T12:11:24;99508.28;;;11.85;100.00
78590;BME280;67888;50.228;7.828;2024-02-14T12:16:25;99510.13;;;11.69;100.00
78590;BME280;67888;50.228;7.828;2024-02-14T12:21:25;99515.41;;;11.64;100.00
78590;BME280;67888;50.228;7.828;2024-02-14T12:26:27;99516.47;;;11.78;100.00
78590;BME280;67888;50.228;7.828;2024-02-14T12:31:28;99509.34;;;11.79;100.00
78590;BME280;67888;50.228;7.828;2024-02-14T12:36:31;99511.19;;;11.89;100.00
78590;BME280;67888;50.228;7.828;2024-02-14T12:41:33;99507.50;;;11.74;100.00
78590;BME280;67888;50.228;7.828;2024-02-14T12:46:35;99508.28;;;11.55;100.00
78590;BME280;67888;50.228;7.828;2024-02-14T12:51:38;99503.56;;;11.52;100.00
78590;BME280;67888;50.228;7.828;2024-02-14T12:56:39;99502.25;;;11.44;100.00
78590;BME280;67888;50.228;7.828;2024-02-14T13:01:41;99491.94;;;11.68;100.00
78590;BME280;67888;50.228;7.828;2024-02-14T13:06:42;99498.53;;;11.65;100.00
78590;BME280;67888;50.228;7.828;2024-02-14T13:11:43;99491.97;;;11.63;100.00
78590;BME280;67888;50.228;7.828;2024-02-14T13:16:43;99493.28;;;11.55;100.00
78590;BME280;67888;50.228;7.828;2024-02-14T13:21:44;99483.00;;;11.54;100.00
78590;BME280;67888;50.228;7.828;2024-02-14T13:26:45;99481.69;;;11.51;100.00
78590;BME280;67888;50.228;7.828;2024-02-14T13:31:46;99481.94;;;11.55;100.00
78590;BME280;67888;50.228;7.828;2024-02-14T13:36:47;99484.31;;;11.56;100.00
78590;BME280;67888;50.228;7.828;2024-02-14T13:41:47;99488.56;;;11.37;100.00
78590;BME280;67888;50.228;7.828;2024-02-14T13:46:48;99482.75;;;11.45;100.00
78590;BME280;67888;50.228;7.828;2024-02-14T13:51:51;99476.94;;;11.43;100.00
78590;BME280;67888;50.228;7.828;2024-02-14T13:56:52;99494.34;;;11.49;100.00
78590;BME280;67888;50.228;7.828;2024-02-14T14:01:53;99479.06;;;11.46;100.00
78590;BME280;67888;50.228;7.828;2024-02-14T14:06:53;99478.00;;;11.42;100.00
78590;BME280;67888;50.228;7.828;2024-02-14T14:11:55;99472.22;;;11.35;100.00
78590;BME280;67888;50.228;7.828;2024-02-14T14:16:56;99469.56;;;11.50;100.00
78590;BME280;67888;50.228;7.828;2024-02-14T14:21:57;99468.78;;;11.65;100.00
78590;BME280;67888;50.228;7.828;2024-02-14T14:26:59;99466.38;;;11.78;100.00
78590;BME280;67888;50.228;7.828;2024-02-14T14:31:59;99467.44;;;11.62;100.00
78590;BME280;67888;50.228;7.828;2024-02-14T14:37:00;99468.50;;;11.76;100.00
78590;BME280;67888;50.228;7.828;2024-02-14T14:42:01;99468.22;;;11.73;100.00
78590;BME280;67888;50.228;7.828;2024-02-14T14:47:02;99461.91;;;11.54;100.00
78590;BME280;67888;50.228;7.828;2024-02-14T14:52:02;99458.47;;;11.53;100.00
78590;BME280;67888;50.228;7.828;2024-02-14T14:57:04;99459.81;;;11.61;100.00
78590;BME280;67888;50.228;7.828;2024-02-14T15:02:09;99460.34;;;11.58;100.00
78590;BME280;67888;50.228;7.828;2024-02-14T15:07:10;99468.00;;;11.49;100.00
78590;BME280;67888;50.228;7.828;2024-02-14T15:12:10;99476.16;;;11.37;100.00
78590;BME280;67888;50.228;7.828;2024-02-14T15:17:11;99471.69;;;11.33;100.00
78590;BME280;67888;50.228;7.828;2024-02-14T15:22:11;99470.13;;;11.27;100.00
78590;BME280;67888;50.228;7.828;2024-02-14T15:27:12;99464.84;;;11.27;100.00
78590;BME280;67888;50.228;7.828;2024-02-14T15:32:21;99458.50;;;11.33;100.00
78590;BME280;67888;50.228;7.828;2024-02-14T15:37:40;99461.94;;;11.38;100.00
78590;BME280;67888;50.228;7.828;2024-02-14T15:42:43;99463.00;;;11.32;100.00
78590;BME280;67888;50.228;7.828;2024-02-14T15:47:45;99456.16;;;11.21;100.00
78590;BME280;67888;50.228;7.828;2024-02-14T15:52:45;99459.56;;;11.17;100.00
78590;BME280;67888;50.228;7.828;2024-02-14T15:57:46;99456.16;;;11.21;100.00
78590;BME280;67888;50.228;7.828;2024-02-14T16:02:48;99458.53;;;11.23;100.00
78590;BME280;67888;50.228;7.828;2024-02-14T16:07:49;99449.28;;;11.15;100.00
78590;BME280;67888;50.228;7.828;2024-02-14T16:12:49;99456.41;;;11.25;100.00
78590;BME280;67888;50.228;7.828;2024-02-14T16:17:50;99454.03;;;11.18;100.00
78590;BME280;67888;50.228;7.828;2024-02-14T16:22:50;99459.56;;;11.06;100.00
78590;BME280;67888;50.228;7.828;2024-02-14T16:27:51;99457.47;;;11.08;100.00
78590;BME280;67888;50.228;7.828;2024-02-14T16:32:53;99450.63;;;11.07;100.00
78590;BME280;67888;50.228;7.828;2024-02-14T16:37:53;99457.97;;;11.16;100.00
78590;BME280;67888;50.228;7.828;2024-02-14T16:42:54;99443.75;;;11.06;100.00
78590;BME280;67888;50.228;7.828;2024-02-14T16:47:54;99452.19;;;11.08;100.00
78590;BME280;67888;50.228;7.828;2024-02-14T16:52:55;99459.31;;;11.13;100.00
78590;BME280;67888;50.228;7.828;2024-02-14T16:57:56;99463.78;;;11.18;100.00
78590;BME280;67888;50.228;7.828;2024-02-14T17:03:01;99468.50;;;11.16;100.00
78590;BME280;67888;50.228;7.828;2024-02-14T17:08:02;99477.22;;;11.16;100.00
78590;BME280;67888;50.228;7.828;2024-02-14T17:13:02;99475.63;;;11.20;100.00
78590;BME280;67888;50.228;7.828;2024-02-14T17:18:03;99481.72;;;11.26;100.00
78590;BME280;67888;50.228;7.828;2024-02-14T17:23:05;99481.69;;;11.21;100.00
78590;BME280;67888;50.228;7.828;2024-02-14T17:28:06;99492.22;;;11.16;100.00
78590;BME280;67888;50.228;7.828;2024-02-14T17:33:07;99504.34;;;11.11;100.00
78590;BME280;67888;50.228;7.828;2024-02-14T17:38:08;99500.16;;;11.26;100.00
78590;BME280;67888;50.228;7.828;2024-02-14T17:43:09;99506.22;;;11.26;100.00
78590;BME280;67888;50.228;7.828;2024-02-14T17:48:09;99512.28;;;11.27;100.00
78590;BME280;67888;50.228;7.828;2024-02-14T17:53:10;99509.06;;;11.14;100.00
78590;BME280;67888;50.228;7.828;2024-02-14T17:58:10;99507.50;;;11.34;100.00
78590;BME280;67888;50.228;7.828;2024-02-14T18:03:11;99512.00;;;11.33;100.00
78590;BME280;67888;50.228;7.828;2024-02-14T18:08:11;99513.03;;;11.27;100.00
78590;BME280;67888;50.228;7.828;2024-02-14T18:13:12;99512.50;;;11.20;100.00
78590;BME280;67888;50.228;7.828;2024-02-14T18:18:13;99510.41;;;11.22;100.00
78590;BME280;67888;50.228;7.828;2024-02-14T18:23:13;99503.56;;;11.26;100.00
78590;BME280;67888;50.228;7.828;2024-02-14T18:28:14;99504.59;;;11.40;100.00
78590;BME280;67888;50.228;7.828;2024-02-14T18:33:15;99501.19;;;11.40;100.00
78590;BME280;67888;50.228;7.828;2024-02-14T18:38:15;99499.88;;;11.42;100.00
78590;BME280;67888;50.228;7.828;2024-02-14T18:43:19;99504.59;;;11.30;100.00
78590;BME280;67888;50.228;7.828;2024-02-14T18:48:21;99509.88;;;11.20;100.00
78590;BME280;67888;50.228;7.828;2024-02-14T18:53:21;99498.00;;;11.28;100.00
78590;BME280;67888;50.228;7.828;2024-02-14T18:58:22;99503.56;;;11.21;100.00
78590;BME280;67888;50.228;7.828;2024-02-14T19:03:23;99502.50;;;11.27;100.00
78590;BME280;67888;50.228;7.828;2024-02-14T19:08:23;99504.34;;;11.42;100.00
78590;BME280;67888;50.228;7.828;2024-02-14T19:13:24;99496.97;;;11.24;100.00
78590;BME280;67888;50.228;7.828;2024-02-14T19:18:25;99514.88;;;11.22;100.00
78590;BME280;67888;50.228;7.828;2024-02-14T19:23:26;99521.75;;;11.23;100.00
78590;BME280;67888;50.228;7.828;2024-02-14T19:28:27;99514.88;;;11.17;100.00
78590;BME280;67888;50.228;7.828;2024-02-14T19:33:28;99511.19;;;11.23;100.00
78590;BME280;67888;50.228;7.828;2024-02-14T19:38:28;99514.88;;;11.11;100.00
78590;BME280;67888;50.228;7.828;2024-02-14T19:43:29;99519.06;;;10.97;100.00
78590;BME280;67888;50.228;7.828;2024-02-14T19:48:29;99514.09;;;11.11;100.00
78590;BME280;67888;50.228;7.828;2024-02-14T19:53:34;99515.94;;;11.10;100.00
78590;BME280;67888;50.228;7.828;2024-02-14T19:58:35;99518.03;;;11.19;100.00
78590;BME280;67888;50.228;7.828;2024-02-14T20:03:36;99527.25;;;11.11;100.00
78590;BME280;67888;50.228;7.828;2024-02-14T20:08:42;99528.03;;;11.17;100.00
78590;BME280;67888;50.228;7.828;2024-02-14T20:13:43;99535.16;;;11.21;100.00
78590;BME280;67888;50.228;7.828;2024-02-14T20:18:44;99542.81;;;11.23;100.00
78590;BME280;67888;50.228;7.828;2024-02-14T20:23:45;99548.59;;;11.20;100.00
78590;BME280;67888;50.228;7.828;2024-02-14T20:28:45;99548.06;;;11.12;100.00
78590;BME280;67888;50.228;7.828;2024-02-14T20:33:47;99553.34;;;11.12;100.00
78590;BME280;67888;50.228;7.828;2024-02-14T20:38:47;99541.22;;;11.17;100.00
78590;BME280;67888;50.228;7.828;2024-02-14T20:43:50;99540.16;;;11.12;100.00
78590;BME280;67888;50.228;7.828;2024-02-14T20:48:51;99527.00;;;11.12;100.00
78590;BME280;67888;50.228;7.828;2024-02-14T20:53:55;99530.69;;;11.32;100.00
78590;BME280;67888;50.228;7.828;2024-02-14T20:58:56;99535.97;;;11.27;100.00
78590;BME280;67888;50.228;7.828;2024-02-14T21:03:56;99534.09;;;11.27;100.00
78590;BME280;67888;50.228;7.828;2024-02-14T21:08:57;99540.97;;;11.23;100.00
78590;BME280;67888;50.228;7.828;2024-02-14T21:13:58;99534.38;;;11.31;100.00
78590;BME280;67888;50.228;7.828;2024-02-14T21:18:59;99535.16;;;11.31;100.00
78590;BME280;67888;50.228;7.828;2024-02-14T21:24:00;99547.28;;;11.32;100.00
78590;BME280;67888;50.228;7.828;2024-02-14T21:29:00;99552.81;;;11.31;100.00
78590;BME280;67888;50.228;7.828;2024-02-14T21:34:01;99557.28;;;11.20;100.00
78590;BME280;67888;50.228;7.828;2024-02-14T21:39:05;99561.47;;;11.01;100.00
78590;BME280;67888;50.228;7.828;2024-02-14T21:44:06;99561.25;;;11.12;100.00
78590;BME280;67888;50.228;7.828;2024-02-14T21:49:07;99559.69;;;11.27;100.00
78590;BME280;67888;50.228;7.828;2024-02-14T21:54:08;99561.78;;;11.25;100.00
78590;BME280;67888;50.228;7.828;2024-02-14T21:59:08;99559.69;;;11.27;100.00
78590;BME280;67888;50.228;7.828;2024-02-14T22:04:09;99547.81;;;11.24;100.00
78590;BME280;67888;50.228;7.828;2024-02-14T22:09:09;99559.91;;;11.20;100.00
78590;BME280;67888;50.228;7.828;2024-02-14T22:14:10;99555.66;;;11.04;100.00
78590;BME280;67888;50.228;7.828;2024-02-14T22:19:11;99557.53;;;10.98;100.00
78590;BME280;67888;50.228;7.828;2024-02-14T22:24:13;99545.41;;;11.02;100.00
78590;BME280;67888;50.228;7.828;2024-02-14T22:29:13;99550.66;;;10.97;100.00
78590;BME280;67888;50.228;7.828;2024-02-14T22:34:13;99552.25;;;10.98;100.00
78590;BME280;67888;50.228;7.828;2024-02-14T22:39:14;99546.97;;;10.88;100.00
78590;BME280;67888;50.228;7.828;2024-02-14T22:44:15;99544.03;;;10.80;100.00
78590;BME280;67888;50.228;7.828;2024-02-14T22:49:17;99532.72;;;10.89;100.00
78590;BME280;67888;50.228;7.828;2024-02-14T22:54:18;99536.44;;;10.88;100.00
78590;BME280;67888;50.228;7.828;2024-02-14T22:59:20;99537.47;;;10.87;100.00
78590;BME280;67888;50.228;7.828;2024-02-14T23:04:21;99536.38;;;10.78;100.00
78590;BME280;67888;50.228;7.828;2024-02-14T23:09:23;99535.53;;;10.57;100.00
78590;BME280;67888;50.228;7.828;2024-02-14T23:14:23;99542.69;;;10.72;100.00
78590;BME280;67888;50.228;7.828;2024-02-14T23:19:24;99533.38;;;10.44;100.00
78590;BME280;67888;50.228;7.828;2024-02-14T23:24:25;99539.94;;;10.41;100.00
78590;BME280;67888;50.228;7.828;2024-02-14T23:29:25;99543.09;;;10.44;100.00
78590;BME280;67888;50.228;7.828;2024-02-14T23:34:26;99523.19;;;10.58;100.00
78590;BME280;67888;50.228;7.828;2024-02-14T23:39:26;99528.88;;;10.39;100.00
78590;BME280;67888;50.228;7.828;2024-02-14T23:44:27;99526.03;;;10.46;100.00
78590;BME280;67888;50.228;7.828;2024-02-14T23:49:27;99520.19;;;10.39;100.00
78590;BME280;67888;50.228;7.828;2024-02-14T23:54:27;99519.19;;;10.45;100.00
78590;BME280;67888;50.228;7.828;2024-02-14T23:59:28;99523.06;;;10.32;100.00
